sensor_id;sensor_type;location;lat;lon;timestamp;P1;durP1;ratioP1;P2;durP2;ratioP2
819;SDS011;392;48.838;2.322;2024-03-22T00:02:15;17.97;;;16.07;;
819;SDS011;392;48.838;2.322;2024-03-22T00:04:41;16.77;;;15.27;;
819;SDS011;392;48.838;2.322;2024-03-22T00:07:08;16.90;;;15.20;;
819;SDS011;392;48.838;2.322;2024-03-22T00:09:34;17.40;;;15.80;;
819;SDS011;392;48.838;2.322;2024-03-22T00:12:02;16.80;;;14.80;;
819;SDS011;392;48.838;2.322;2024-03-22T00:14:30;15.23;;;13.63;;
819;SDS011;392;48.838;2.322;2024-03-22T00:16:58;16.60;;;14.90;;
819;SDS011;392;48.838;2.322;2024-03-22T00:19:24;18.73;;;16.93;;
819;SDS011;392;48.838;2.322;2024-03-22T00:21:51;19.37;;;17.47;;
819;SDS011;392;48.838;2.322;2024-03-22T00:24:17;19.50;;;17.50;;
819;SDS011;392;48.838;2.322;2024-03-22T00:26:44;19.03;;;17.10;;
819;SDS011;392;48.838;2.322;2024-03-22T00:29:14;19.40;;;17.47;;
819;SDS011;392;48.838;2.322;2024-03-22T00:31:43;19.93;;;17.83;;
819;SDS011;392;48.838;2.322;2024-03-22T00:34:09;21.00;;;18.90;;
819;SDS011;392;48.838;2.322;2024-03-22T00:36:36;20.53;;;18.33;;
819;SDS011;392;48.838;2.322;2024-03-22T00:39:03;20.37;;;18.37;;
819;SDS011;392;48.838;2.322;2024-03-22T00:41:30;20.10;;;18.20;;
819;SDS011;392;48.838;2.322;2024-03-22T00:43:56;21.63;;;19.43;;
819;SDS011;392;48.838;2.322;2024-03-22T00:46:24;20.90;;;18.90;;
819;SDS011;392;48.838;2.322;2024-03-22T00:48:52;22.67;;;20.27;;
819;SDS011;392;48.838;2.322;2024-03-22T00:51:19;22.33;;;20.13;;
819;SDS011;392;48.838;2.322;2024-03-22T00:53:45;22.43;;;20.10;;
819;SDS011;392;48.838;2.322;2024-03-22T00:56:12;22.80;;;20.50;;
819;SDS011;392;48.838;2.322;2024-03-22T00:58:38;22.67;;;20.37;;
819;SDS011;392;48.838;2.322;2024-03-22T01:01:06;25.73;;;21.43;;
819;SDS011;392;48.838;2.322;2024-03-22T01:03:32;23.50;;;20.70;;
819;SDS011;392;48.838;2.322;2024-03-22T01:06:00;22.87;;;20.37;;
819;SDS011;392;48.838;2.322;2024-03-22T01:08:27;22.93;;;20.53;;
819;SDS011;392;48.838;2.322;2024-03-22T01:10:54;24.57;;;20.80;;
819;SDS011;392;48.838;2.322;2024-03-22T01:13:20;27.13;;;21.20;;
819;SDS011;392;48.838;2.322;2024-03-22T01:15:47;25.30;;;22.70;;
819;SDS011;392;48.838;2.322;2024-03-22T01:18:14;24.70;;;20.80;;
819;SDS011;392;48.838;2.322;2024-03-22T01:20:41;24.50;;;21.90;;
819;SDS011;392;48.838;2.322;2024-03-22T01:23:09;25.40;;;22.10;;
819;SDS011;392;48.838;2.322;2024-03-22T01:25:36;25.67;;;22.83;;
819;SDS011;392;48.838;2.322;2024-03-22T01:28:02;24.80;;;22.10;;
819;SDS011;392;48.838;2.322;2024-03-22T01:30:30;23.37;;;20.80;;
819;SDS011;392;48.838;2.322;2024-03-22T01:32:58;25.50;;;22.77;;
819;SDS011;392;48.838;2.322;2024-03-22T01:35:25;25.80;;;21.93;;
819;SDS011;392;48.838;2.322;2024-03-22T01:37:52;23.43;;;21.13;;
819;SDS011;392;48.838;2.322;2024-03-22T01:40:20;25.57;;;22.97;;
819;SDS011;392;48.838;2.322;2024-03-22T01:42:47;21.80;;;19.50;;
819;SDS011;392;48.838;2.322;2024-03-22T01:45:14;24.00;;;21.53;;
819;SDS011;392;48.838;2.322;2024-03-22T01:47:40;24.93;;;22.37;;
819;SDS011;392;48.838;2.322;2024-03-22T01:50:08;22.77;;;20.33;;
819;SDS011;392;48.838;2.322;2024-03-22T01:52:37;23.93;;;21.37;;
819;SDS011;392;48.838;2.322;2024-03-22T01:55:06;24.03;;;21.47;;
819;SDS011;392;48.838;2.322;2024-03-22T01:57:35;24.43;;;21.83;;
819;SDS011;392;48.838;2.322;2024-03-22T02:00:03;24.43;;;21.93;;
819;SDS011;392;48.838;2.322;2024-03-22T02:02:39;24.50;;;21.87;;
819;SDS011;392;48.838;2.322;2024-03-22T02:05:13;25.10;;;22.50;;
819;SDS011;392;48.838;2.322;2024-03-22T02:07:40;24.23;;;21.40;;
819;SDS011;392;48.838;2.322;2024-03-22T02:10:08;22.30;;;20.10;;
819;SDS011;392;48.838;2.322;2024-03-22T02:12:37;25.13;;;21.70;;
819;SDS011;392;48.838;2.322;2024-03-22T02:15:05;23.80;;;21.50;;
819;SDS011;392;48.838;2.322;2024-03-22T02:17:32;24.10;;;21.50;;
819;SDS011;392;48.838;2.322;2024-03-22T02:19:59;24.50;;;21.90;;
819;SDS011;392;48.838;2.322;2024-03-22T02:22:26;25.50;;;22.67;;
819;SDS011;392;48.838;2.322;2024-03-22T02:24:55;25.27;;;22.47;;
819;SDS011;392;48.838;2.322;2024-03-22T02:27:21;24.10;;;21.70;;
819;SDS011;392;48.838;2.322;2024-03-22T02:29:48;25.47;;;22.77;;
819;SDS011;392;48.838;2.322;2024-03-22T02:32:15;24.73;;;22.17;;
819;SDS011;392;48.838;2.322;2024-03-22T02:34:42;23.67;;;21.17;;
819;SDS011;392;48.838;2.322;2024-03-22T02:37:08;24.00;;;21.13;;
819;SDS011;392;48.838;2.322;2024-03-22T02:39:35;24.17;;;21.70;;
819;SDS011;392;48.838;2.322;2024-03-22T02:42:03;23.80;;;21.40;;
819;SDS011;392;48.838;2.322;2024-03-22T02:44:30;21.97;;;19.80;;
819;SDS011;392;48.838;2.322;2024-03-22T02:46:56;23.80;;;21.37;;
819;SDS011;392;48.838;2.322;2024-03-22T02:49:24;23.50;;;21.20;;
819;SDS011;392;48.838;2.322;2024-03-22T02:51:50;22.90;;;20.47;;
819;SDS011;392;48.838;2.322;2024-03-22T02:54:18;23.23;;;20.73;;
819;SDS011;392;48.838;2.322;2024-03-22T02:56:44;21.37;;;19.00;;
819;SDS011;392;48.838;2.322;2024-03-22T02:59:12;23.73;;;20.43;;
819;SDS011;392;48.838;2.322;2024-03-22T03:01:39;22.47;;;20.07;;
819;SDS011;392;48.838;2.322;2024-03-22T03:04:06;20.93;;;18.83;;
819;SDS011;392;48.838;2.322;2024-03-22T03:06:32;21.93;;;19.83;;
819;SDS011;392;48.838;2.322;2024-03-22T03:08:59;20.90;;;18.70;;
819;SDS011;392;48.838;2.322;2024-03-22T03:11:25;21.37;;;18.83;;
819;SDS011;392;48.838;2.322;2024-03-22T03:13:52;19.43;;;17.63;;
819;SDS011;392;48.838;2.322;2024-03-22T03:16:20;19.33;;;17.43;;
819;SDS011;392;48.838;2.322;2024-03-22T03:18:47;20.43;;;18.43;;
819;SDS011;392;48.838;2.322;2024-03-22T03:21:13;19.23;;;17.23;;
819;SDS011;392;48.838;2.322;2024-03-22T03:23:40;19.13;;;17.07;;
819;SDS011;392;48.838;2.322;2024-03-22T03:26:07;18.67;;;16.87;;
819;SDS011;392;48.838;2.322;2024-03-22T03:28:34;18.63;;;16.67;;
819;SDS011;392;48.838;2.322;2024-03-22T03:31:00;19.43;;;17.60;;
819;SDS011;392;48.838;2.322;2024-03-22T03:33:30;19.77;;;17.87;;
819;SDS011;392;48.838;2.322;2024-03-22T03:35:56;20.57;;;18.47;;
819;SDS011;392;48.838;2.322;2024-03-22T03:38:23;21.40;;;17.93;;
819;SDS011;392;48.838;2.322;2024-03-22T03:40:49;19.37;;;17.40;;
819;SDS011;392;48.838;2.322;2024-03-22T03:43:16;19.13;;;17.20;;
819;SDS011;392;48.838;2.322;2024-03-22T03:45:43;20.13;;;17.80;;
819;SDS011;392;48.838;2.322;2024-03-22T03:48:10;19.07;;;16.97;;
819;SDS011;392;48.838;2.322;2024-03-22T03:50:37;19.53;;;17.50;;
819;SDS011;392;48.838;2.322;2024-03-22T03:53:04;19.27;;;17.27;;
819;SDS011;392;48.838;2.322;2024-03-22T03:55:31;20.17;;;18.33;;
819;SDS011;392;48.838;2.322;2024-03-22T03:57:58;18.83;;;17.13;;
819;SDS011;392;48.838;2.322;2024-03-22T04:00:25;19.90;;;17.90;;
819;SDS011;392;48.838;2.322;2024-03-22T04:02:52;19.70;;;17.67;;
819;SDS011;392;48.838;2.322;2024-03-22T04:05:18;20.50;;;18.40;;
819;SDS011;392;48.838;2.322;2024-03-22T04:07:48;20.07;;;18.03;;
819;SDS011;392;48.838;2.322;2024-03-22T04:10:14;19.93;;;18.00;;
819;SDS011;392;48.838;2.322;2024-03-22T04:12:42;20.03;;;18.23;;
819;SDS011;392;48.838;2.322;2024-03-22T04:15:10;18.07;;;16.37;;
819;SDS011;392;48.838;2.322;2024-03-22T04:17:37;19.00;;;17.13;;
819;SDS011;392;48.838;2.322;2024-03-22T04:20:03;19.70;;;17.70;;
819;SDS011;392;48.838;2.322;2024-03-22T04:22:33;19.53;;;17.60;;
819;SDS011;392;48.838;2.322;2024-03-22T04:25:00;21.17;;;18.87;;
819;SDS011;392;48.838;2.322;2024-03-22T04:27:28;21.40;;;19.07;;
819;SDS011;392;48.838;2.322;2024-03-22T04:29:54;20.23;;;17.13;;
819;SDS011;392;48.838;2.322;2024-03-22T04:32:21;19.90;;;16.00;;
819;SDS011;392;48.838;2.322;2024-03-22T04:34:47;18.57;;;16.67;;
819;SDS011;392;48.838;2.322;2024-03-22T04:37:14;18.57;;;16.67;;
819;SDS011;392;48.838;2.322;2024-03-22T04:39:41;22.50;;;18.77;;
819;SDS011;392;48.838;2.322;2024-03-22T04:42:13;19.73;;;17.67;;
819;SDS011;392;48.838;2.322;2024-03-22T04:44:41;18.63;;;16.63;;
819;SDS011;392;48.838;2.322;2024-03-22T04:47:08;20.37;;;18.17;;
819;SDS011;392;48.838;2.322;2024-03-22T04:49:34;20.10;;;18.20;;
819;SDS011;392;48.838;2.322;2024-03-22T04:52:01;19.90;;;17.80;;
819;SDS011;392;48.838;2.322;2024-03-22T04:54:28;20.40;;;18.30;;
819;SDS011;392;48.838;2.322;2024-03-22T04:56:55;22.07;;;18.27;;
819;SDS011;392;48.838;2.322;2024-03-22T04:59:23;19.33;;;17.30;;
819;SDS011;392;48.838;2.322;2024-03-22T05:01:50;20.17;;;18.10;;
819;SDS011;392;48.838;2.322;2024-03-22T05:04:18;19.10;;;17.10;;
819;SDS011;392;48.838;2.322;2024-03-22T05:06:45;19.20;;;16.77;;
819;SDS011;392;48.838;2.322;2024-03-22T05:09:11;21.30;;;16.80;;
819;SDS011;392;48.838;2.322;2024-03-22T05:11:39;19.17;;;17.13;;
819;SDS011;392;48.838;2.322;2024-03-22T05:14:05;19.47;;;17.43;;
819;SDS011;392;48.838;2.322;2024-03-22T05:16:33;19.90;;;17.23;;
819;SDS011;392;48.838;2.322;2024-03-22T05:19:00;20.50;;;18.50;;
819;SDS011;392;48.838;2.322;2024-03-22T05:21:27;19.50;;;17.40;;
819;SDS011;392;48.838;2.322;2024-03-22T05:23:53;19.70;;;17.57;;
819;SDS011;392;48.838;2.322;2024-03-22T05:26:21;18.80;;;16.47;;
819;SDS011;392;48.838;2.322;2024-03-22T05:28:48;19.67;;;17.57;;
819;SDS011;392;48.838;2.322;2024-03-22T05:31:15;20.30;;;17.97;;
819;SDS011;392;48.838;2.322;2024-03-22T05:33:42;20.17;;;18.07;;
819;SDS011;392;48.838;2.322;2024-03-22T05:36:09;18.63;;;16.63;;
819;SDS011;392;48.838;2.322;2024-03-22T05:38:35;20.40;;;17.83;;
819;SDS011;392;48.838;2.322;2024-03-22T05:41:04;20.33;;;18.10;;
819;SDS011;392;48.838;2.322;2024-03-22T05:43:30;18.80;;;16.77;;
819;SDS011;392;48.838;2.322;2024-03-22T05:45:57;19.73;;;17.63;;
819;SDS011;392;48.838;2.322;2024-03-22T05:48:24;20.30;;;17.70;;
819;SDS011;392;48.838;2.322;2024-03-22T05:50:52;21.17;;;18.20;;
819;SDS011;392;48.838;2.322;2024-03-22T05:53:19;20.43;;;18.37;;
819;SDS011;392;48.838;2.322;2024-03-22T05:55:46;20.20;;;17.93;;
819;SDS011;392;48.838;2.322;2024-03-22T05:58:12;20.83;;;18.07;;
819;SDS011;392;48.838;2.322;2024-03-22T06:00:40;21.07;;;18.97;;
819;SDS011;392;48.838;2.322;2024-03-22T06:03:06;20.63;;;18.43;;
819;SDS011;392;48.838;2.322;2024-03-22T06:05:33;20.27;;;18.13;;
819;SDS011;392;48.838;2.322;2024-03-22T06:08:00;22.93;;;18.23;;
819;SDS011;392;48.838;2.322;2024-03-22T06:10:28;21.10;;;18.77;;
819;SDS011;392;48.838;2.322;2024-03-22T06:12:55;21.83;;;19.53;;
819;SDS011;392;48.838;2.322;2024-03-22T06:15:22;21.10;;;18.00;;
819;SDS011;392;48.838;2.322;2024-03-22T06:17:48;20.27;;;18.20;;
819;SDS011;392;48.838;2.322;2024-03-22T06:20:15;20.90;;;18.70;;
819;SDS011;392;48.838;2.322;2024-03-22T06:22:41;20.57;;;18.47;;
819;SDS011;392;48.838;2.322;2024-03-22T06:25:10;20.83;;;18.63;;
819;SDS011;392;48.838;2.322;2024-03-22T06:27:36;20.80;;;17.77;;
819;SDS011;392;48.838;2.322;2024-03-22T06:30:04;21.00;;;18.80;;
819;SDS011;392;48.838;2.322;2024-03-22T06:32:31;21.40;;;19.20;;
819;SDS011;392;48.838;2.322;2024-03-22T06:34:59;21.20;;;18.80;;
819;SDS011;392;48.838;2.322;2024-03-22T06:37:25;20.53;;;18.53;;
819;SDS011;392;48.838;2.322;2024-03-22T06:39:52;22.37;;;19.93;;
819;SDS011;392;48.838;2.322;2024-03-22T06:42:19;22.27;;;20.00;;
819;SDS011;392;48.838;2.322;2024-03-22T06:44:46;22.60;;;20.20;;
819;SDS011;392;48.838;2.322;2024-03-22T06:47:13;22.43;;;20.03;;
819;SDS011;392;48.838;2.322;2024-03-22T06:49:40;23.43;;;21.00;;
819;SDS011;392;48.838;2.322;2024-03-22T06:52:06;22.37;;;19.40;;
819;SDS011;392;48.838;2.322;2024-03-22T06:54:33;23.60;;;21.10;;
819;SDS011;392;48.838;2.322;2024-03-22T06:57:00;23.80;;;20.70;;
819;SDS011;392;48.838;2.322;2024-03-22T06:59:28;21.73;;;19.53;;
819;SDS011;392;48.838;2.322;2024-03-22T07:01:54;23.87;;;19.97;;
819;SDS011;392;48.838;2.322;2024-03-22T07:04:22;24.63;;;21.40;;
819;SDS011;392;48.838;2.322;2024-03-22T07:06:48;22.47;;;20.13;;
819;SDS011;392;48.838;2.322;2024-03-22T07:09:15;22.73;;;20.23;;
819;SDS011;392;48.838;2.322;2024-03-22T07:11:41;24.03;;;21.20;;
819;SDS011;392;48.838;2.322;2024-03-22T07:14:08;22.47;;;20.13;;
819;SDS011;392;48.838;2.322;2024-03-22T07:16:36;23.83;;;21.33;;
819;SDS011;392;48.838;2.322;2024-03-22T07:19:03;21.80;;;19.50;;
819;SDS011;392;48.838;2.322;2024-03-22T07:21:30;24.33;;;21.83;;
819;SDS011;392;48.838;2.322;2024-03-22T07:23:57;24.07;;;21.57;;
819;SDS011;392;48.838;2.322;2024-03-22T07:26:23;23.37;;;20.97;;
819;SDS011;392;48.838;2.322;2024-03-22T07:28:50;23.57;;;20.60;;
819;SDS011;392;48.838;2.322;2024-03-22T07:31:16;24.73;;;21.90;;
819;SDS011;392;48.838;2.322;2024-03-22T07:33:45;24.03;;;19.27;;
819;SDS011;392;48.838;2.322;2024-03-22T07:36:11;23.67;;;21.17;;
819;SDS011;392;48.838;2.322;2024-03-22T07:38:38;24.67;;;20.97;;
819;SDS011;392;48.838;2.322;2024-03-22T07:41:04;22.97;;;20.47;;
819;SDS011;392;48.838;2.322;2024-03-22T07:43:31;23.20;;;20.83;;
819;SDS011;392;48.838;2.322;2024-03-22T07:45:58;23.73;;;21.20;;
819;SDS011;392;48.838;2.322;2024-03-22T07:48:25;24.30;;;20.97;;
819;SDS011;392;48.838;2.322;2024-03-22T07:50:56;24.30;;;21.60;;
819;SDS011;392;48.838;2.322;2024-03-22T07:53:24;25.20;;;22.60;;
819;SDS011;392;48.838;2.322;2024-03-22T07:55:50;23.77;;;21.27;;
819;SDS011;392;48.838;2.322;2024-03-22T07:58:17;24.27;;;21.67;;
819;SDS011;392;48.838;2.322;2024-03-22T08:00:44;22.97;;;20.63;;
819;SDS011;392;48.838;2.322;2024-03-22T08:03:14;24.43;;;20.17;;
819;SDS011;392;48.838;2.322;2024-03-22T08:05:41;23.33;;;20.87;;
819;SDS011;392;48.838;2.322;2024-03-22T08:08:10;26.43;;;23.57;;
819;SDS011;392;48.838;2.322;2024-03-22T08:10:36;25.57;;;23.07;;
819;SDS011;392;48.838;2.322;2024-03-22T08:13:03;27.50;;;22.97;;
819;SDS011;392;48.838;2.322;2024-03-22T08:15:29;25.30;;;21.37;;
819;SDS011;392;48.838;2.322;2024-03-22T08:17:57;28.03;;;22.90;;
819;SDS011;392;48.838;2.322;2024-03-22T08:20:24;27.37;;;23.50;;
819;SDS011;392;48.838;2.322;2024-03-22T08:22:51;26.10;;;22.80;;
819;SDS011;392;48.838;2.322;2024-03-22T08:25:18;25.33;;;22.63;;
819;SDS011;392;48.838;2.322;2024-03-22T08:27:46;26.93;;;22.03;;
819;SDS011;392;48.838;2.322;2024-03-22T08:30:12;24.30;;;21.77;;
819;SDS011;392;48.838;2.322;2024-03-22T08:32:40;24.97;;;22.47;;
819;SDS011;392;48.838;2.322;2024-03-22T08:35:06;23.93;;;21.53;;
819;SDS011;392;48.838;2.322;2024-03-22T08:37:34;23.90;;;21.40;;
819;SDS011;392;48.838;2.322;2024-03-22T08:40:00;24.13;;;21.67;;
819;SDS011;392;48.838;2.322;2024-03-22T08:42:31;24.53;;;21.47;;
819;SDS011;392;48.838;2.322;2024-03-22T08:44:57;24.73;;;22.03;;
819;SDS011;392;48.838;2.322;2024-03-22T08:47:25;25.77;;;22.03;;
819;SDS011;392;48.838;2.322;2024-03-22T08:49:51;25.07;;;22.00;;
819;SDS011;392;48.838;2.322;2024-03-22T08:52:18;26.50;;;23.40;;
819;SDS011;392;48.838;2.322;2024-03-22T08:54:44;26.97;;;23.87;;
819;SDS011;392;48.838;2.322;2024-03-22T08:57:11;24.87;;;22.37;;
819;SDS011;392;48.838;2.322;2024-03-22T08:59:40;26.33;;;23.57;;
819;SDS011;392;48.838;2.322;2024-03-22T09:02:06;27.43;;;23.60;;
819;SDS011;392;48.838;2.322;2024-03-22T09:04:33;24.50;;;22.10;;
819;SDS011;392;48.838;2.322;2024-03-22T09:06:59;27.30;;;24.47;;
819;SDS011;392;48.838;2.322;2024-03-22T09:09:26;24.23;;;21.83;;
819;SDS011;392;48.838;2.322;2024-03-22T09:11:53;26.90;;;21.97;;
819;SDS011;392;48.838;2.322;2024-03-22T09:14:20;24.30;;;21.80;;
819;SDS011;392;48.838;2.322;2024-03-22T09:16:47;25.20;;;20.70;;
819;SDS011;392;48.838;2.322;2024-03-22T09:19:14;24.53;;;21.33;;
819;SDS011;392;48.838;2.322;2024-03-22T09:21:41;23.20;;;20.70;;
819;SDS011;392;48.838;2.322;2024-03-22T09:24:09;24.43;;;21.67;;
819;SDS011;392;48.838;2.322;2024-03-22T09:26:35;23.03;;;20.67;;
819;SDS011;392;48.838;2.322;2024-03-22T09:29:02;21.53;;;19.33;;
819;SDS011;392;48.838;2.322;2024-03-22T09:31:29;26.00;;;19.77;;
819;SDS011;392;48.838;2.322;2024-03-22T09:33:59;21.70;;;19.40;;
819;SDS011;392;48.838;2.322;2024-03-22T09:36:25;24.20;;;21.70;;
819;SDS011;392;48.838;2.322;2024-03-22T09:38:52;21.40;;;19.20;;
819;SDS011;392;48.838;2.322;2024-03-22T09:41:19;19.87;;;17.70;;
819;SDS011;392;48.838;2.322;2024-03-22T09:43:51;21.13;;;18.23;;
819;SDS011;392;48.838;2.322;2024-03-22T09:46:18;21.43;;;18.67;;
819;SDS011;392;48.838;2.322;2024-03-22T09:48:46;22.93;;;20.53;;
819;SDS011;392;48.838;2.322;2024-03-22T09:51:15;23.67;;;21.23;;
819;SDS011;392;48.838;2.322;2024-03-22T09:53:43;21.50;;;18.53;;
819;SDS011;392;48.838;2.322;2024-03-22T09:56:10;20.67;;;18.47;;
819;SDS011;392;48.838;2.322;2024-03-22T09:58:41;21.60;;;19.30;;
819;SDS011;392;48.838;2.322;2024-03-22T10:01:07;22.70;;;18.90;;
819;SDS011;392;48.838;2.322;2024-03-22T10:03:35;24.27;;;21.77;;
819;SDS011;392;48.838;2.322;2024-03-22T10:06:05;23.87;;;21.40;;
819;SDS011;392;48.838;2.322;2024-03-22T10:08:34;23.07;;;20.67;;
819;SDS011;392;48.838;2.322;2024-03-22T10:11:01;25.93;;;20.83;;
819;SDS011;392;48.838;2.322;2024-03-22T10:13:29;25.20;;;22.13;;
819;SDS011;392;48.838;2.322;2024-03-22T10:15:56;21.33;;;19.10;;
819;SDS011;392;48.838;2.322;2024-03-22T10:18:23;23.40;;;21.00;;
819;SDS011;392;48.838;2.322;2024-03-22T10:20:58;24.03;;;21.53;;
819;SDS011;392;48.838;2.322;2024-03-22T10:23:27;22.57;;;20.00;;
819;SDS011;392;48.838;2.322;2024-03-22T10:25:55;19.73;;;17.57;;
819;SDS011;392;48.838;2.322;2024-03-22T10:28:24;20.30;;;18.30;;
819;SDS011;392;48.838;2.322;2024-03-22T10:30:51;22.83;;;20.47;;
819;SDS011;392;48.838;2.322;2024-03-22T10:33:19;20.20;;;18.20;;
819;SDS011;392;48.838;2.322;2024-03-22T10:35:49;21.27;;;18.93;;
819;SDS011;392;48.838;2.322;2024-03-22T10:38:20;22.37;;;19.77;;
819;SDS011;392;48.838;2.322;2024-03-22T10:40:47;20.27;;;18.27;;
819;SDS011;392;48.838;2.322;2024-03-22T10:43:16;20.97;;;18.87;;
819;SDS011;392;48.838;2.322;2024-03-22T10:45:43;19.43;;;17.53;;
819;SDS011;392;48.838;2.322;2024-03-22T10:48:14;18.90;;;17.00;;
819;SDS011;392;48.838;2.322;2024-03-22T10:50:44;20.37;;;18.37;;
819;SDS011;392;48.838;2.322;2024-03-22T10:53:12;20.23;;;18.33;;
819;SDS011;392;48.838;2.322;2024-03-22T10:55:46;21.60;;;19.43;;
819;SDS011;392;48.838;2.322;2024-03-22T10:58:15;21.20;;;19.20;;
819;SDS011;392;48.838;2.322;2024-03-22T11:00:44;21.93;;;20.03;;
819;SDS011;392;48.838;2.322;2024-03-22T11:03:10;23.77;;;21.77;;
819;SDS011;392;48.838;2.322;2024-03-22T11:05:44;22.40;;;20.70;;
819;SDS011;392;48.838;2.322;2024-03-22T11:08:11;22.60;;;20.67;;
819;SDS011;392;48.838;2.322;2024-03-22T11:10:38;21.23;;;19.70;;
819;SDS011;392;48.838;2.322;2024-03-22T11:13:05;21.90;;;20.10;;
819;SDS011;392;48.838;2.322;2024-03-22T11:15:35;22.37;;;20.57;;
819;SDS011;392;48.838;2.322;2024-03-22T11:18:01;22.53;;;20.93;;
819;SDS011;392;48.838;2.322;2024-03-22T11:20:29;24.33;;;22.57;;
819;SDS011;392;48.838;2.322;2024-03-22T11:22:56;22.97;;;21.17;;
819;SDS011;392;48.838;2.322;2024-03-22T11:25:23;23.50;;;21.90;;
819;SDS011;392;48.838;2.322;2024-03-22T11:27:50;22.70;;;20.97;;
819;SDS011;392;48.838;2.322;2024-03-22T11:30:17;21.30;;;19.80;;
819;SDS011;392;48.838;2.322;2024-03-22T11:32:44;22.80;;;20.90;;
819;SDS011;392;48.838;2.322;2024-03-22T11:35:12;20.97;;;19.57;;
819;SDS011;392;48.838;2.322;2024-03-22T11:37:39;21.93;;;20.33;;
819;SDS011;392;48.838;2.322;2024-03-22T11:40:08;21.63;;;20.13;;
819;SDS011;392;48.838;2.322;2024-03-22T11:42:35;21.70;;;20.17;;
819;SDS011;392;48.838;2.322;2024-03-22T11:45:04;21.40;;;19.90;;
819;SDS011;392;48.838;2.322;2024-03-22T11:47:33;21.63;;;20.20;;
819;SDS011;392;48.838;2.322;2024-03-22T11:50:02;22.87;;;21.17;;
819;SDS011;392;48.838;2.322;2024-03-22T11:52:30;22.90;;;21.20;;
819;SDS011;392;48.838;2.322;2024-03-22T11:54:57;22.00;;;20.50;;
819;SDS011;392;48.838;2.322;2024-03-22T11:57:24;21.93;;;20.23;;
819;SDS011;392;48.838;2.322;2024-03-22T11:59:51;20.10;;;18.70;;
819;SDS011;392;48.838;2.322;2024-03-22T12:02:24;21.77;;;20.20;;
819;SDS011;392;48.838;2.322;2024-03-22T12:04:51;22.20;;;20.60;;
819;SDS011;392;48.838;2.322;2024-03-22T12:07:19;20.20;;;18.80;;
819;SDS011;392;48.838;2.322;2024-03-22T12:09:46;21.00;;;19.60;;
819;SDS011;392;48.838;2.322;2024-03-22T12:12:12;23.23;;;21.73;;
819;SDS011;392;48.838;2.322;2024-03-22T12:14:40;21.47;;;19.97;;
819;SDS011;392;48.838;2.322;2024-03-22T12:17:06;22.40;;;21.00;;
819;SDS011;392;48.838;2.322;2024-03-22T12:19:34;22.40;;;20.90;;
819;SDS011;392;48.838;2.322;2024-03-22T12:22:04;21.40;;;20.00;;
819;SDS011;392;48.838;2.322;2024-03-22T12:24:33;21.80;;;20.40;;
819;SDS011;392;48.838;2.322;2024-03-22T12:26:59;21.63;;;20.30;;
819;SDS011;392;48.838;2.322;2024-03-22T12:29:26;21.03;;;19.53;;
819;SDS011;392;48.838;2.322;2024-03-22T12:31:52;20.53;;;19.30;;
819;SDS011;392;48.838;2.322;2024-03-22T12:34:19;21.47;;;20.17;;
819;SDS011;392;48.838;2.322;2024-03-22T12:36:46;16.93;;;15.93;;
819;SDS011;392;48.838;2.322;2024-03-22T12:39:13;18.40;;;17.30;;
819;SDS011;392;48.838;2.322;2024-03-22T12:41:40;19.20;;;17.97;;
819;SDS011;392;48.838;2.322;2024-03-22T12:44:07;18.30;;;17.10;;
819;SDS011;392;48.838;2.322;2024-03-22T12:46:33;17.57;;;16.47;;
819;SDS011;392;48.838;2.322;2024-03-22T12:49:01;16.53;;;15.63;;
819;SDS011;392;48.838;2.322;2024-03-22T12:51:27;17.97;;;16.90;;
819;SDS011;392;48.838;2.322;2024-03-22T12:53:54;16.37;;;15.37;;
819;SDS011;392;48.838;2.322;2024-03-22T12:56:21;12.87;;;12.27;;
819;SDS011;392;48.838;2.322;2024-03-22T12:58:50;14.43;;;13.53;;
819;SDS011;392;48.838;2.322;2024-03-22T13:01:16;11.37;;;10.77;;
819;SDS011;392;48.838;2.322;2024-03-22T13:03:44;13.30;;;12.50;;
819;SDS011;392;48.838;2.322;2024-03-22T13:06:10;13.37;;;12.67;;
819;SDS011;392;48.838;2.322;2024-03-22T13:08:38;13.53;;;12.83;;
819;SDS011;392;48.838;2.322;2024-03-22T13:11:05;12.70;;;12.00;;
819;SDS011;392;48.838;2.322;2024-03-22T13:13:33;13.23;;;12.33;;
819;SDS011;392;48.838;2.322;2024-03-22T13:16:01;11.97;;;11.27;;
819;SDS011;392;48.838;2.322;2024-03-22T13:18:29;12.90;;;12.20;;
819;SDS011;392;48.838;2.322;2024-03-22T13:20:55;11.40;;;10.70;;
819;SDS011;392;48.838;2.322;2024-03-22T13:23:22;12.37;;;11.67;;
819;SDS011;392;48.838;2.322;2024-03-22T13:25:50;12.63;;;11.63;;
819;SDS011;392;48.838;2.322;2024-03-22T13:28:16;12.00;;;11.30;;
819;SDS011;392;48.838;2.322;2024-03-22T13:30:47;12.30;;;11.50;;
819;SDS011;392;48.838;2.322;2024-03-22T13:33:15;12.13;;;11.53;;
819;SDS011;392;48.838;2.322;2024-03-22T13:35:44;11.37;;;10.77;;
819;SDS011;392;48.838;2.322;2024-03-22T13:38:10;7.57;;;7.07;;
819;SDS011;392;48.838;2.322;2024-03-22T13:40:39;7.30;;;6.63;;
819;SDS011;392;48.838;2.322;2024-03-22T13:43:05;7.17;;;6.77;;
819;SDS011;392;48.838;2.322;2024-03-22T13:45:38;6.50;;;6.20;;
819;SDS011;392;48.838;2.322;2024-03-22T13:48:10;6.23;;;5.73;;
819;SDS011;392;48.838;2.322;2024-03-22T13:50:39;6.97;;;6.57;;
819;SDS011;392;48.838;2.322;2024-03-22T13:53:05;7.43;;;6.93;;
819;SDS011;392;48.838;2.322;2024-03-22T13:55:33;7.97;;;7.47;;
819;SDS011;392;48.838;2.322;2024-03-22T13:58:00;6.90;;;6.50;;
819;SDS011;392;48.838;2.322;2024-03-22T14:00:27;9.17;;;8.30;;
819;SDS011;392;48.838;2.322;2024-03-22T14:02:54;8.40;;;7.70;;
819;SDS011;392;48.838;2.322;2024-03-22T14:05:21;8.40;;;7.90;;
819;SDS011;392;48.838;2.322;2024-03-22T14:07:50;9.50;;;8.80;;
819;SDS011;392;48.838;2.322;2024-03-22T14:10:18;8.37;;;7.87;;
819;SDS011;392;48.838;2.322;2024-03-22T14:12:45;7.60;;;7.10;;
819;SDS011;392;48.838;2.322;2024-03-22T14:15:12;9.30;;;8.60;;
819;SDS011;392;48.838;2.322;2024-03-22T14:17:39;9.03;;;8.30;;
819;SDS011;392;48.838;2.322;2024-03-22T14:20:06;7.70;;;7.20;;
819;SDS011;392;48.838;2.322;2024-03-22T14:22:37;7.20;;;6.80;;
819;SDS011;392;48.838;2.322;2024-03-22T14:25:07;7.60;;;7.10;;
819;SDS011;392;48.838;2.322;2024-03-22T14:27:34;7.30;;;6.70;;
819;SDS011;392;48.838;2.322;2024-03-22T14:30:02;7.93;;;7.43;;
819;SDS011;392;48.838;2.322;2024-03-22T14:32:31;7.50;;;6.90;;
819;SDS011;392;48.838;2.322;2024-03-22T14:34:58;5.80;;;5.40;;
819;SDS011;392;48.838;2.322;2024-03-22T14:37:25;6.40;;;5.80;;
819;SDS011;392;48.838;2.322;2024-03-22T14:39:52;5.97;;;5.47;;
819;SDS011;392;48.838;2.322;2024-03-22T14:42:20;6.57;;;6.07;;
819;SDS011;392;48.838;2.322;2024-03-22T14:44:47;6.70;;;6.20;;
819;SDS011;392;48.838;2.322;2024-03-22T14:47:13;8.07;;;7.47;;
819;SDS011;392;48.838;2.322;2024-03-22T14:49:41;7.00;;;6.50;;
819;SDS011;392;48.838;2.322;2024-03-22T14:52:07;5.50;;;5.10;;
819;SDS011;392;48.838;2.322;2024-03-22T14:54:35;4.90;;;4.60;;
819;SDS011;392;48.838;2.322;2024-03-22T14:57:01;5.90;;;5.50;;
819;SDS011;392;48.838;2.322;2024-03-22T14:59:30;7.20;;;6.60;;
819;SDS011;392;48.838;2.322;2024-03-22T15:01:56;7.30;;;6.60;;
819;SDS011;392;48.838;2.322;2024-03-22T15:04:23;7.17;;;6.67;;
819;SDS011;392;48.838;2.322;2024-03-22T15:06:49;7.13;;;6.63;;
819;SDS011;392;48.838;2.322;2024-03-22T15:09:17;8.53;;;7.77;;
819;SDS011;392;48.838;2.322;2024-03-22T15:11:43;8.40;;;7.70;;
819;SDS011;392;48.838;2.322;2024-03-22T15:14:11;8.90;;;7.40;;
819;SDS011;392;48.838;2.322;2024-03-22T15:16:39;8.70;;;7.93;;
819;SDS011;392;48.838;2.322;2024-03-22T15:19:07;8.63;;;7.93;;
819;SDS011;392;48.838;2.322;2024-03-22T15:21:34;9.03;;;8.30;;